Time;durP1;ratioP1;P1;durP2;ratioP2;P2;SDS_P1;SDS_P2;PMS_P1;PMS_P2;Temp;Humidity;BMP_temperature;BMP_pressure;BME280_temperature;BME280_humidity;BME280_pressure;Samples;Min_cycle;Max_cycle;Signal;HPM_P1;HPM_P2
2022/07/05 03:00:37;;;;;;;3.58;1.42;;;26.20;34.10;;;;;;5788668;23;45921;-60
2022/07/05 03:03:02;;;;;;;4.70;1.67;;;26.30;34.10;;;;;;4908731;28;46661;-61
2022/07/05 03:05:28;;;;;;;2.75;1.30;;;26.30;34.00;;;;;;4908440;28;45540;-61
2022/07/05 03:07:54;;;;;;;4.38;1.17;;;26.30;34.00;;;;;;4915987;28;44673;-58
2022/07/05 03:10:19;;;;;;;2.17;1.25;;;26.30;34.10;;;;;;4913535;28;45213;-58
2022/07/05 03:12:45;;;;;;;1.63;1.00;;;26.30;34.20;;;;;;4922802;28;46157;-58
2022/07/05 03:15:11;;;;;;;4.22;1.30;;;26.30;34.30;;;;;;4913547;28;46376;-59
2022/07/05 03:17:36;;;;;;;2.35;1.15;;;26.30;34.20;;;;;;4921574;28;45543;-60
2022/07/05 03:20:02;;;;;;;2.85;1.35;;;26.30;34.20;;;;;;4916164;28;45663;-58
2022/07/05 03:22:28;;;;;;;1.60;0.90;;;26.30;34.30;;;;;;4919667;28;45658;-61
2022/07/05 03:24:53;;;;;;;1.25;0.70;;;26.30;34.40;;;;;;4914677;28;45305;-57
2022/07/05 03:27:19;;;;;;;1.95;1.10;;;26.20;35.00;;;;;;4921469;28;45528;-60
2022/07/05 03:29:45;;;;;;;1.73;1.15;;;26.30;34.40;;;;;;4920481;28;45630;-59
2022/07/05 03:32:10;;;;;;;5.55;2.33;;;26.30;34.40;;;;;;4906235;28;46032;-61
2022/07/05 03:34:38;;;;;;;4.22;2.28;;;26.30;34.40;;;;;;4924594;28;45199;-60
2022/07/05 03:37:04;;;;;;;3.25;2.13;;;26.30;34.50;;;;;;4919902;28;45577;-60
2022/07/05 03:39:29;;;;;;;3.92;1.65;;;26.30;34.50;;;;;;4904303;28;45621;-59
2022/07/05 03:41:55;;;;;;;2.28;1.60;;;26.30;34.50;;;;;;4906469;28;45580;-58
2022/07/05 03:44:20;;;;;;;3.80;1.40;;;26.30;34.50;;;;;;4926015;28;45507;-60
2022/07/05 03:46:46;;;;;;;2.95;1.40;;;26.30;35.20;;;;;;4900973;28;45573;-60
2022/07/05 03:49:11;;;;;;;5.78;1.73;;;26.30;34.60;;;;;;4905504;28;45538;-60
2022/07/05 03:51:37;;;;;;;1.35;1.10;;;26.30;34.60;;;;;;4922371;28;45889;-59
2022/07/05 03:54:03;;;;;;;3.45;1.38;;;26.30;34.70;;;;;;4916428;28;45323;-59
2022/07/05 03:56:29;;;;;;;7.03;2.70;;;26.30;34.70;;;;;;4927645;28;45751;-59
2022/07/05 03:58:54;;;;;;;3.95;1.60;;;26.20;34.80;;;;;;4917225;28;44849;-59
2022/07/05 04:01:20;;;;;;;4.13;1.73;;;26.20;34.80;;;;;;4919500;28;46175;-61
2022/07/05 04:03:46;;;;;;;4.78;2.10;;;26.10;34.90;;;;;;4927398;28;44680;-57
2022/07/05 04:06:11;;;;;;;5.13;1.95;;;26.00;34.90;;;;;;4920052;28;45035;-62
2022/07/05 04:08:37;;;;;;;2.88;1.60;;;26.10;35.00;;;;;;4905189;28;45572;-60
2022/07/05 04:11:03;;;;;;;2.50;1.30;;;26.10;34.90;;;;;;4917480;28;45947;-59
2022/07/05 04:13:29;;;;;;;4.10;1.50;;;26.10;35.00;;;;;;4901189;28;45116;-57
2022/07/05 04:15:55;;;;;;;2.90;1.27;;;26.10;35.00;;;;;;4916725;28;45342;-58
2022/07/05 04:18:21;;;;;;;4.43;1.30;;;26.00;35.00;;;;;;4900035;28;45555;-60
2022/07/05 04:20:47;;;;;;;2.63;1.30;;;26.00;35.00;;;;;;4916406;28;45300;-59
2022/07/05 04:23:13;;;;;;;1.33;0.90;;;26.10;35.00;;;;;;4921929;28;45009;-58
2022/07/05 04:25:38;;;;;;;2.80;1.40;;;26.20;35.00;;;;;;4926201;28;45472;-59
2022/07/05 04:28:04;;;;;;;3.25;1.20;;;26.10;34.90;;;;;;4916496;28;45730;-59
2022/07/05 04:30:29;;;;;;;4.13;1.30;;;26.00;35.00;;;;;;4919806;28;45605;-59
2022/07/05 04:32:55;;;;;;;2.17;1.27;;;26.00;35.10;;;;;;4921140;28;45591;-60
2022/07/05 04:35:21;;;;;;;2.60;1.55;;;26.00;35.20;;;;;;4921062;28;45326;-60
2022/07/05 04:37:46;;;;;;;1.33;1.00;;;26.00;35.10;;;;;;4915997;28;46153;-62
2022/07/05 04:40:12;;;;;;;1.75;1.23;;;26.00;35.20;;;;;;4911695;28;46132;-60
2022/07/05 04:42:38;;;;;;;1.52;0.90;;;26.00;35.20;;;;;;4924517;28;45445;-60
2022/07/05 04:45:04;;;;;;;5.05;0.85;;;26.00;35.40;;;;;;4915341;28;45419;-60
2022/07/05 04:47:30;;;;;;;1.52;0.80;;;25.90;35.40;;;;;;4923387;28;45118;-61
2022/07/05 04:49:57;;;;;;;2.58;1.10;;;26.00;35.60;;;;;;4920451;28;45306;-58
2022/07/05 04:52:23;;;;;;;2.72;1.13;;;26.00;35.60;;;;;;4927400;28;44744;-59
2022/07/05 04:54:48;;;;;;;1.42;0.90;;;26.00;35.60;;;;;;4900798;28;45575;-60
2022/07/05 04:57:14;;;;;;;1.67;0.80;;;26.00;35.50;;;;;;4926536;28;45193;-59
2022/07/05 04:59:39;;;;;;;1.45;1.02;;;26.10;35.60;;;;;;4918899;28;46080;-64
2022/07/05 05:02:05;;;;;;;1.90;0.70;;;26.10;35.50;;;;;;4917979;28;45572;-61
2022/07/05 05:04:31;;;;;;;1.77;0.85;;;26.10;35.70;;;;;;4922413;28;45663;-61
2022/07/05 05:06:56;;;;;;;3.13;0.80;;;26.10;35.90;;;;;;4920176;28;45705;-62
2022/07/05 05:09:22;;;;;;;1.45;1.13;;;26.10;35.90;;;;;;4921392;28;46321;-61
2022/07/05 05:11:47;;;;;;;0.85;0.70;;;26.00;35.90;;;;;;4921732;28;46089;-60
2022/07/05 05:14:13;;;;;;;3.58;0.90;;;26.00;35.80;;;;;;4925899;28;44972;-59
2022/07/05 05:16:39;;;;;;;1.33;0.80;;;26.00;35.90;;;;;;4926266;28;45963;-61
2022/07/05 05:19:04;;;;;;;1.17;0.80;;;26.00;35.90;;;;;;4921649;28;45281;-59
2022/07/05 05:21:30;;;;;;;1.20;0.80;;;26.00;35.90;;;;;;4922841;28;45509;-61
2022/07/05 05:23:55;;;;;;;3.38;0.70;;;26.00;35.80;;;;;;4924717;28;45277;-60
2022/07/05 05:26:21;;;;;;;0.80;0.60;;;26.00;35.80;;;;;;4927029;28;45751;-60
2022/07/05 05:28:47;;;;;;;1.02;0.60;;;26.10;35.80;;;;;;4923950;28;45980;-59
2022/07/05 05:31:12;;;;;;;0.95;0.50;;;26.10;35.80;;;;;;4925495;28;45512;-61
2022/07/05 05:33:38;;;;;;;0.88;0.55;;;26.10;35.80;;;;;;4923266;28;45842;-61
2022/07/05 05:36:04;;;;;;;1.13;0.77;;;26.20;35.70;;;;;;4919997;28;45566;-59
2022/07/05 05:38:29;;;;;;;3.97;0.70;;;26.20;35.50;;;;;;4916142;28;46262;-59
2022/07/05 05:40:55;;;;;;;2.30;0.50;;;26.30;35.50;;;;;;4927631;28;45025;-60
2022/07/05 05:43:20;;;;;;;2.88;0.80;;;26.30;35.40;;;;;;4924192;28;45491;-59
2022/07/05 05:45:46;;;;;;;0.80;0.73;;;26.30;35.40;;;;;;4928421;28;45478;-54
2022/07/05 05:48:11;;;;;;;1.13;0.63;;;26.40;35.50;;;;;;4931138;28;46134;-57
2022/07/05 05:50:40;;;;;;;1.92;0.60;;;26.30;35.50;;;;;;4934636;28;45114;-61
2022/07/05 05:53:06;;;;;;;0.88;0.60;;;26.40;35.60;;;;;;4927025;28;45252;-58
2022/07/05 05:55:32;;;;;;;1.42;0.63;;;26.40;35.70;;;;;;4929812;28;45641;-58
2022/07/05 05:58:18;;;;;;;0.45;0.43;;;26.40;35.70;;;;;;4922276;28;46225;-60
2022/07/05 06:00:44;;;;;;;0.80;0.50;;;26.40;35.70;;;;;;4926794;28;45244;-60
2022/07/05 06:03:09;;;;;;;1.10;0.50;;;26.40;35.80;;;;;;4930258;28;45332;-60
2022/07/05 06:05:35;;;;;;;3.53;0.55;;;26.40;35.80;;;;;;4923004;28;45769;-57
2022/07/05 06:08:00;;;;;;;1.00;0.90;;;26.40;35.80;;;;;;4927238;28;45997;-58
2022/07/05 06:10:30;;;;;;;2.28;0.60;;;26.40;35.80;;;;;;4927798;28;45550;-58
2022/07/05 06:12:57;;;;;;;3.63;0.60;;;26.40;35.70;;;;;;4927234;28;45004;-59
2022/07/05 06:15:23;;;;;;;0.50;0.50;;;26.40;35.70;;;;;;4934800;28;44961;-57
2022/07/05 06:17:48;;;;;;;0.57;0.52;;;26.40;35.70;;;;;;4931185;28;47007;-59
2022/07/05 06:20:16;;;;;;;1.55;0.73;;;26.50;35.70;;;;;;4928045;28;44944;-59
2022/07/05 06:22:42;;;;;;;3.47;0.50;;;26.50;35.70;;;;;;4931341;28;45295;-60
2022/07/05 06:25:08;;;;;;;0.40;0.40;;;26.50;35.60;;;;;;4926174;28;45563;-59
2022/07/05 06:27:43;;;;;;;0.85;0.57;;;26.60;35.70;;;;;;4933884;28;46074;-59
2022/07/05 06:30:09;;;;;;;0.73;0.57;;;26.60;35.80;;;;;;4923677;28;45157;-59
2022/07/05 06:32:35;;;;;;;0.95;0.40;;;26.60;35.70;;;;;;4930544;28;45508;-58
2022/07/05 06:35:01;;;;;;;1.65;0.50;;;26.60;35.50;;;;;;4912268;28;45575;-60
2022/07/05 06:37:26;;;;;;;0.70;0.50;;;26.70;35.60;;;;;;4926460;28;44999;-59
2022/07/05 06:39:52;;;;;;;1.38;0.80;;;26.70;35.60;;;;;;4927514;28;45320;-57
2022/07/05 06:42:17;;;;;;;0.52;0.40;;;26.80;35.70;;;;;;4927664;28;45037;-61
2022/07/05 06:44:43;;;;;;;1.33;0.55;;;26.80;35.50;;;;;;4926358;28;45174;-60
2022/07/05 06:47:09;;;;;;;0.95;0.60;;;26.80;35.50;;;;;;4931307;28;45278;-58
2022/07/05 06:49:35;;;;;;;0.50;0.50;;;26.90;35.50;;;;;;4911005;28;45354;-59
2022/07/05 06:52:00;;;;;;;0.88;0.50;;;26.90;35.50;;;;;;4909928;28;45247;-60
2022/07/05 06:54:26;;;;;;;4.28;0.50;;;27.00;35.50;;;;;;4929382;28;45557;-58
2022/07/05 06:56:53;;;;;;;0.73;0.50;;;27.10;35.50;;;;;;4934779;28;46132;-58
2022/07/05 06:59:18;;;;;;;0.82;0.50;;;27.10;35.50;;;;;;4930054;28;45408;-60
2022/07/05 07:01:44;;;;;;;1.17;0.43;;;27.10;35.40;;;;;;4928108;28;44999;-55
2022/07/05 07:04:09;;;;;;;1.85;0.47;;;27.20;35.40;;;;;;4930858;28;44729;-60
2022/07/05 07:06:35;;;;;;;1.15;0.70;;;27.20;35.40;;;;;;4931646;28;46844;-58
2022/07/05 07:09:20;;;;;;;2.42;0.52;;;27.20;35.40;;;;;;4926949;28;44766;-60
2022/07/05 07:11:46;;;;;;;3.67;0.40;;;27.20;35.50;;;;;;4926956;28;45174;-57
2022/07/05 07:14:12;;;;;;;1.60;0.70;;;27.30;35.50;;;;;;4927143;28;45215;-60
2022/07/05 07:16:37;;;;;;;1.15;0.47;;;27.30;35.60;;;;;;4927737;28;46183;-57
2022/07/05 07:19:03;;;;;;;0.60;0.40;;;27.30;35.50;;;;;;4926480;28;45688;-60
2022/07/05 07:21:28;;;;;;;1.67;0.52;;;27.30;35.50;;;;;;4924536;28;45586;-57
2022/07/05 07:23:54;;;;;;;2.47;0.70;;;27.40;35.50;;;;;;4920349;28;45564;-59
2022/07/05 07:26:20;;;;;;;1.35;0.57;;;27.40;35.50;;;;;;4921897;28;45894;-58
2022/07/05 07:28:45;;;;;;;0.70;0.43;;;27.40;35.50;;;;;;4927487;28;45522;-55
2022/07/05 07:31:11;;;;;;;0.80;0.47;;;27.40;35.50;;;;;;4930952;28;45199;-56
2022/07/05 07:33:36;;;;;;;1.30;0.50;;;27.50;35.60;;;;;;4927848;28;45355;-55
2022/07/05 07:36:02;;;;;;;1.15;0.50;;;27.50;35.60;;;;;;4929419;28;45404;-55
2022/07/05 07:38:28;;;;;;;3.22;1.08;;;27.50;35.50;;;;;;4907898;28;45485;-58
2022/07/05 07:40:54;;;;;;;2.30;0.88;;;27.60;35.40;;;;;;4930902;28;44999;-56
2022/07/05 07:43:19;;;;;;;1.85;0.80;;;27.60;35.40;;;;;;4913236;28;45502;-57
2022/07/05 07:45:45;;;;;;;1.05;0.50;;;27.60;35.30;;;;;;4933826;28;46446;-56
2022/07/05 07:48:10;;;;;;;1.42;0.60;;;27.60;35.30;;;;;;4925463;28;45185;-57
2022/07/05 07:50:36;;;;;;;1.30;0.50;;;27.60;35.30;;;;;;4928994;28;45198;-58
2022/07/05 07:53:01;;;;;;;1.75;0.45;;;27.60;35.20;;;;;;4933048;28;45236;-57
2022/07/05 07:55:27;;;;;;;1.92;0.70;;;27.60;35.30;;;;;;4930588;28;46008;-56
2022/07/05 07:57:53;;;;;;;2.17;0.50;;;27.60;35.20;;;;;;4922785;28;45219;-63
2022/07/05 08:00:18;;;;;;;2.25;0.60;;;27.70;35.20;;;;;;4905483;28;44883;-57
2022/07/05 08:02:44;;;;;;;1.73;0.60;;;27.70;35.20;;;;;;4925531;28;45555;-54
2022/07/05 08:05:10;;;;;;;2.22;0.65;;;27.70;35.20;;;;;;4925099;28;45868;-55
2022/07/05 08:07:38;;;;;;;1.80;0.63;;;27.70;35.10;;;;;;4931070;28;44932;-57
2022/07/05 08:10:05;;;;;;;3.72;1.40;;;27.80;35.10;;;;;;4919770;28;45340;-59
2022/07/05 08:12:30;;;;;;;9.27;2.78;;;27.70;35.00;;;;;;4930278;28;45645;-57
2022/07/05 08:14:56;;;;;;;6.80;2.10;;;27.80;34.80;;;;;;4931419;28;46280;-58
2022/07/05 08:17:21;;;;;;;8.93;1.75;;;27.80;34.70;;;;;;4929452;28;45317;-57
2022/07/05 08:22:31;;;;;;;4.72;1.98;;;27.90;34.60;;;;;;4911524;28;45533;-57
2022/07/05 08:24:57;;;;;;;6.85;2.20;;;27.90;34.40;;;;;;4931229;28;45241;-58
2022/07/05 08:27:23;;;;;;;7.20;1.80;;;28.00;34.50;;;;;;4929935;28;44654;-58
2022/07/05 08:29:49;;;;;;;3.80;1.50;;;28.00;34.50;;;;;;4925197;28;45462;-58
2022/07/05 08:32:15;;;;;;;3.83;1.67;;;28.00;34.50;;;;;;4930615;28;45218;-57
2022/07/05 08:34:41;;;;;;;2.33;1.00;;;28.00;34.50;;;;;;4929134;28;46130;-59
2022/07/05 08:37:07;;;;;;;3.92;0.98;;;28.00;34.40;;;;;;4924877;28;45546;-54
2022/07/05 08:39:32;;;;;;;2.60;1.02;;;28.00;34.10;;;;;;4913843;28;45661;-56
2022/07/05 08:41:58;;;;;;;2.47;0.80;;;28.00;34.00;;;;;;4927865;28;44787;-56
2022/07/05 08:44:24;;;;;;;3.00;0.95;;;28.10;34.00;;;;;;4906586;28;45245;-55
2022/07/05 08:46:52;;;;;;;2.65;0.70;;;28.10;33.90;;;;;;4913614;28;45368;-58
2022/07/05 08:49:22;;;;;;;3.60;0.82;;;28.10;33.60;;;;;;4933522;28;44712;-57
2022/07/05 08:51:48;;;;;;;1.08;0.60;;;28.20;33.10;;;;;;4930904;28;45345;-59
2022/07/05 08:54:13;;;;;;;1.20;0.60;;;28.10;32.90;;;;;;4915278;28;45433;-57
2022/07/05 08:56:42;;;;;;;2.25;0.50;;;28.20;32.70;;;;;;4918226;28;44696;-57
2022/07/05 08:59:08;;;;;;;0.50;0.50;;;28.20;32.40;;;;;;4929108;28;44674;-59
2022/07/05 09:01:36;;;;;;;2.78;0.52;;;28.20;32.50;;;;;;4925405;28;45598;-58
2022/07/05 09:04:07;;;;;;;0.90;0.40;;;28.20;32.40;;;;;;4905736;28;45680;-56
2022/07/05 09:06:38;;;;;;;1.10;0.47;;;28.30;32.30;;;;;;4929176;28;45961;-58
2022/07/05 09:09:04;;;;;;;2.22;0.57;;;28.30;32.30;;;;;;4930756;28;45400;-56
2022/07/05 09:11:38;;;;;;;1.77;0.70;;;28.20;32.30;;;;;;4914269;28;45611;-57
2022/07/05 09:14:24;;;;;;;1.65;0.57;;;28.20;32.00;;;;;;4915478;28;46092;-59
2022/07/05 09:16:50;;;;;;;3.35;0.68;;;28.30;31.60;;;;;;4930552;28;45742;-55
2022/07/05 09:19:15;;;;;;;1.10;0.70;;;28.30;32.20;;;;;;4909347;28;45463;-58
2022/07/05 09:21:41;;;;;;;1.92;0.60;;;28.30;32.20;;;;;;4929529;28;45455;-57
2022/07/05 09:24:10;;;;;;;1.50;0.90;;;28.30;32.40;;;;;;4925795;28;46977;-57
2022/07/05 09:26:41;;;;;;;0.90;0.60;;;28.40;32.10;;;;;;4929456;28;45684;-56
2022/07/05 09:29:16;;;;;;;0.80;0.40;;;28.40;32.00;;;;;;4934021;28;45246;-56
2022/07/05 09:31:42;;;;;;;0.85;0.30;;;28.40;31.80;;;;;;4930429;28;44927;-58
2022/07/05 09:34:14;;;;;;;0.40;0.30;;;28.50;31.80;;;;;;4926036;28;47072;-56
2022/07/05 09:37:01;;;;;;;3.17;0.55;;;28.50;31.60;;;;;;4934144;28;45257;-56
2022/07/05 09:39:30;;;;;;;0.85;0.40;;;28.50;31.00;;;;;;4936275;28;44789;-57
2022/07/05 09:42:19;;;;;;;0.82;0.47;;;28.50;32.20;;;;;;4928506;28;45230;-57
2022/07/05 09:44:55;;;;;;;4.10;0.50;;;28.50;31.20;;;;;;4930165;28;45346;-57
2022/07/05 09:47:22;;;;;;;4.22;0.30;;;28.50;31.50;;;;;;4931257;28;45460;-56
2022/07/05 09:49:49;;;;;;;1.10;0.40;;;28.50;31.60;;;;;;4908548;28;45499;-58
2022/07/05 09:52:33;;;;;;;3.22;0.40;;;28.50;31.70;;;;;;4930090;28;45178;-59
2022/07/05 09:55:09;;;;;;;1.73;0.45;;;28.50;31.10;;;;;;4924826;28;45336;-55
2022/07/05 09:57:41;;;;;;;0.98;0.45;;;28.50;31.50;;;;;;4934410;28;45357;-56
2022/07/05 10:00:15;;;;;;;2.72;0.40;;;28.50;31.30;;;;;;4932008;28;44924;-58
2022/07/05 10:02:41;;;;;;;0.57;0.50;;;28.60;31.20;;;;;;4927023;28;45230;-59
2022/07/05 10:05:07;;;;;;;2.42;0.50;;;28.60;31.50;;;;;;4930013;28;45275;-57
2022/07/05 10:07:33;;;;;;;1.15;0.30;;;28.60;31.50;;;;;;4931443;28;45291;-57
2022/07/05 10:09:59;;;;;;;0.95;0.40;;;28.60;31.50;;;;;;4902789;28;44868;-60
2022/07/05 10:12:24;;;;;;;0.75;0.40;;;28.60;31.50;;;;;;4914813;28;44939;-60
2022/07/05 10:14:50;;;;;;;0.77;0.40;;;28.70;31.60;;;;;;4896033;28;45274;-61
2022/07/05 10:17:15;;;;;;;0.90;0.40;;;28.70;31.50;;;;;;4898269;28;45446;-59
2022/07/05 10:19:41;;;;;;;3.42;0.50;;;28.70;31.50;;;;;;4928517;28;45328;-58
2022/07/05 10:22:06;;;;;;;0.73;0.50;;;28.80;31.60;;;;;;4911316;28;45427;-59
2022/07/05 10:24:34;;;;;;;3.15;0.60;;;28.80;31.60;;;;;;4914899;28;46009;-58
2022/07/05 10:26:59;;;;;;;0.50;0.50;;;28.80;31.50;;;;;;4935257;28;44642;-57
2022/07/05 10:29:25;;;;;;;1.35;0.70;;;28.80;31.30;;;;;;4904413;28;45331;-60
2022/07/05 10:31:51;;;;;;;2.63;0.73;;;28.80;31.30;;;;;;4901135;28;44780;-60
2022/07/05 10:34:16;;;;;;;2.08;0.50;;;28.80;31.20;;;;;;4903994;28;46045;-60
2022/07/05 10:36:42;;;;;;;1.42;0.90;;;28.80;31.20;;;;;;4913300;28;44977;-60
2022/07/05 10:39:09;;;;;;;1.88;0.50;;;28.80;31.10;;;;;;4914070;28;44747;-61
2022/07/05 10:41:35;;;;;;;1.40;0.52;;;28.80;30.90;;;;;;4928258;28;45246;-60
2022/07/05 10:44:00;;;;;;;1.52;0.40;;;28.80;30.90;;;;;;4913673;28;46043;-55
2022/07/05 10:46:36;;;;;;;1.30;0.40;;;28.80;31.00;;;;;;4911068;28;45438;-56
2022/07/05 10:49:15;;;;;;;1.35;0.50;;;28.80;30.70;;;;;;4937645;28;45101;-57
2022/07/05 10:51:41;;;;;;;0.98;0.40;;;28.80;30.60;;;;;;4933199;28;44714;-57
2022/07/05 10:54:07;;;;;;;0.82;0.40;;;28.90;30.80;;;;;;4915894;28;46200;-60
2022/07/05 10:56:32;;;;;;;0.70;0.40;;;29.00;30.70;;;;;;4934187;28;44976;-59
2022/07/05 10:59:09;;;;;;;1.50;0.60;;;29.00;30.50;;;;;;4929974;28;45239;-56
2022/07/05 11:01:41;;;;;;;4.05;0.47;;;29.00;30.10;;;;;;4929319;28;45302;-57
2022/07/05 11:04:21;;;;;;;0.52;0.20;;;29.00;30.50;;;;;;4932830;28;46186;-58
2022/07/05 11:06:49;;;;;;;0.95;0.50;;;29.00;30.40;;;;;;4933601;28;45241;-55
2022/07/05 11:09:16;;;;;;;0.88;0.60;;;29.10;30.40;;;;;;4931034;28;45325;-56
2022/07/05 11:11:47;;;;;;;1.48;0.40;;;29.10;30.40;;;;;;4929100;28;44841;-56
2022/07/05 11:14:19;;;;;;;2.10;0.80;;;29.10;30.30;;;;;;4936944;28;46242;-55
2022/07/05 11:16:45;;;;;;;1.08;0.50;;;29.10;30.00;;;;;;4930313;28;45335;-53
2022/07/05 11:19:11;;;;;;;0.75;0.45;;;29.10;30.20;;;;;;4928804;28;45228;-59
2022/07/05 11:21:38;;;;;;;3.53;0.60;;;29.10;30.00;;;;;;4938244;28;45241;-53
2022/07/05 11:24:22;;;;;;;1.58;0.40;;;29.10;30.00;;;;;;4932825;28;46356;-58
2022/07/05 11:26:48;;;;;;;0.40;0.38;;;29.10;29.70;;;;;;4913393;28;45213;-55
2022/07/05 11:29:48;;;;;;;0.90;0.40;;;29.20;30.00;;;;;;4920404;28;45201;-57
2022/07/05 11:32:21;;;;;;;0.80;0.38;;;29.20;29.20;;;;;;4879719;28;45626;-57
2022/07/05 11:34:50;;;;;;;;;;;29.20;29.60;;;;;;4929160;28;46138;-56
2022/07/05 11:37:18;;;;;;;0.93;0.38;;;29.20;28.90;;;;;;4928427;28;44705;-56
2022/07/05 11:39:45;;;;;;;3.70;0.50;;;29.30;29.60;;;;;;4932086;28;45340;-58
2022/07/05 11:42:11;;;;;;;3.38;0.50;;;29.30;29.50;;;;;;4929221;28;45122;-56
2022/07/05 11:44:40;;;;;;;1.33;0.40;;;29.40;29.50;;;;;;4912204;28;45352;-57
2022/07/05 11:47:05;;;;;;;3.55;0.47;;;29.40;29.60;;;;;;4927587;28;45164;-57
2022/07/05 11:49:31;;;;;;;0.40;0.30;;;29.40;29.40;;;;;;4924635;28;45419;-58
2022/07/05 11:52:01;;;;;;;0.80;0.22;;;29.40;29.50;;;;;;4910014;28;45288;-56
2022/07/05 11:54:32;;;;;;;4.13;0.40;;;29.40;29.40;;;;;;4927134;28;46064;-55
2022/07/05 11:56:59;;;;;;;3.30;0.40;;;29.50;29.20;;;;;;4917605;28;45194;-56
2022/07/05 11:59:25;;;;;;;1.55;0.43;;;29.50;29.30;;;;;;4924912;28;46110;-57
2022/07/05 12:01:51;;;;;;;1.08;0.30;;;29.50;29.20;;;;;;4924238;28;45500;-55
2022/07/05 12:04:30;;;;;;;0.95;0.40;;;29.50;29.20;;;;;;4930541;28;47042;-56
2022/07/05 12:06:55;;;;;;;5.55;0.73;;;29.50;28.80;;;;;;4930119;28;45623;-58
2022/07/05 12:09:25;;;;;;;1.48;0.60;;;29.60;29.10;;;;;;4932652;28;45361;-56
2022/07/05 12:14:36;;;;;;;0.35;0.30;;;29.60;28.90;;;;;;4928846;28;45520;-60
2022/07/05 12:17:15;;;;;;;0.47;0.40;;;29.60;28.90;;;;;;4931700;28;45339;-57
2022/07/05 12:19:41;;;;;;;1.23;0.40;;;29.60;28.40;;;;;;4927628;28;45105;-58
2022/07/05 12:22:06;;;;;;;1.00;0.43;;;29.60;28.80;;;;;;4925519;28;44972;-60
2022/07/05 12:24:32;;;;;;;1.27;0.40;;;29.60;28.90;;;;;;4933359;28;47137;-59
2022/07/05 12:26:57;;;;;;;0.90;0.40;;;29.70;28.80;;;;;;4898649;28;44714;-58
2022/07/05 12:29:23;;;;;;;1.80;0.38;;;29.70;28.80;;;;;;4928992;28;44967;-60
2022/07/05 12:32:02;;;;;;;0.77;0.57;;;29.70;28.60;;;;;;4933345;28;45159;-57
2022/07/05 12:34:27;;;;;;;2.70;0.40;;;29.70;28.10;;;;;;4911230;28;46120;-59
2022/07/05 12:36:53;;;;;;;1.23;0.40;;;29.70;28.50;;;;;;4911631;28;44933;-60
2022/07/05 12:39:18;;;;;;;0.98;0.52;;;29.70;28.60;;;;;;4912069;28;45224;-60
2022/07/05 12:41:44;;;;;;;1.23;0.38;;;29.70;28.60;;;;;;4922027;28;44995;-57
2022/07/05 12:44:10;;;;;;;0.60;0.32;;;29.70;28.60;;;;;;4912750;28;46433;-59
2022/07/05 12:46:39;;;;;;;2.55;0.52;;;29.70;28.60;;;;;;4936485;28;45271;-61
2022/07/05 12:49:04;;;;;;;0.60;0.30;;;29.70;28.70;;;;;;4925430;28;45135;-60
2022/07/05 12:51:34;;;;;;;0.68;0.43;;;29.70;28.60;;;;;;4928488;28;45256;-58
2022/07/05 12:59:33;;;;;;;1.63;0.40;;;29.90;28.50;;;;;;4930985;28;45318;-60
2022/07/05 13:01:58;;;;;;;3.10;0.68;;;29.90;28.50;;;;;;4911681;28;44933;-58
2022/07/05 13:04:24;;;;;;;2.20;0.70;;;29.90;28.50;;;;;;4909350;28;45328;-60
2022/07/05 13:06:50;;;;;;;4.68;0.88;;;29.90;28.30;;;;;;4927992;28;44808;-58
2022/07/05 13:09:28;;;;;;;1.40;0.70;;;29.90;28.40;;;;;;4934678;28;45468;-56
2022/07/05 13:12:08;;;;;;;1.95;0.63;;;30.00;28.10;;;;;;4924319;28;45222;-57
2022/07/05 13:14:33;;;;;;;2.63;0.60;;;30.00;28.10;;;;;;4928630;28;46056;-58
2022/07/05 13:16:59;;;;;;;1.90;0.50;;;30.00;28.30;;;;;;4930806;28;45249;-56
2022/07/05 13:19:24;;;;;;;0.85;0.57;;;30.00;28.10;;;;;;4908277;28;45587;-57
2022/07/05 13:21:50;;;;;;;3.53;0.60;;;30.00;28.00;;;;;;4930415;28;45054;-58
2022/07/05 13:24:16;;;;;;;1.92;0.60;;;30.10;27.90;;;;;;4928983;28;45904;-59
2022/07/05 13:26:41;;;;;;;1.83;0.77;;;30.10;27.90;;;;;;4928841;28;45315;-57
2022/07/05 13:29:07;;;;;;;2.38;0.70;;;30.10;27.90;;;;;;4928590;28;45079;-57
2022/07/05 13:31:33;;;;;;;2.45;0.70;;;30.20;27.90;;;;;;4931050;28;45369;-56
2022/07/05 13:33:59;;;;;;;1.77;0.70;;;30.10;27.90;;;;;;4928028;28;46143;-61
2022/07/05 13:36:25;;;;;;;0.80;0.47;;;30.20;27.90;;;;;;4933868;28;45341;-58
2022/07/05 13:38:50;;;;;;;0.98;0.52;;;30.20;27.90;;;;;;4928442;28;45227;-57
2022/07/05 13:41:16;;;;;;;1.42;0.70;;;30.20;27.90;;;;;;4931618;28;45566;-57
2022/07/05 13:43:41;;;;;;;1.02;0.68;;;30.20;28.00;;;;;;4928782;28;46029;-57
2022/07/05 13:46:07;;;;;;;1.02;0.60;;;30.20;27.90;;;;;;4929727;28;45383;-58
2022/07/05 13:48:33;;;;;;;0.98;0.30;;;30.30;27.90;;;;;;4931390;28;45307;-58
2022/07/05 13:50:59;;;;;;;1.15;0.60;;;30.30;27.80;;;;;;4929401;28;45209;-61
2022/07/05 13:53:24;;;;;;;1.10;0.50;;;30.30;27.90;;;;;;4929779;28;46082;-57
2022/07/05 13:55:50;;;;;;;1.92;0.40;;;30.30;27.80;;;;;;4934631;28;45571;-60
2022/07/05 13:58:15;;;;;;;3.17;0.45;;;30.40;27.90;;;;;;4933764;28;44696;-60
2022/07/05 14:00:41;;;;;;;2.75;0.50;;;30.40;27.90;;;;;;4927829;28;45674;-57
2022/07/05 14:03:06;;;;;;;1.02;0.45;;;30.40;27.80;;;;;;4937046;28;45856;-59
2022/07/05 14:05:32;;;;;;;;;;;30.40;27.70;;;;;;4930675;28;45298;-60
2022/07/05 14:07:57;;;;;;;;;;;30.40;26.90;;;;;;4930331;28;45280;-60
2022/07/05 14:10:23;;;;;;;;;;;30.40;26.90;;;;;;4928919;28;45050;-58
2022/07/05 14:12:48;;;;;;;;;;;30.40;27.00;;;;;;4914150;28;46032;-60
2022/07/05 14:15:14;;;;;;;;;;;30.40;27.10;;;;;;4928301;28;45496;-60
2022/07/05 14:17:39;;;;;;;;;;;30.30;27.20;;;;;;4923516;28;45222;-59
2022/07/05 14:20:05;;;;;;;;;;;30.40;26.80;;;;;;4928848;28;46264;-59
2022/07/05 14:22:31;;;;;;;;;;;30.40;27.20;;;;;;4928942;28;46451;-59
2022/07/05 14:24:56;;;;;;;;;;;30.40;27.10;;;;;;4929964;28;45181;-61
2022/07/05 14:27:22;;;;;;;;;;;30.50;26.80;;;;;;4928456;28;45386;-60
2022/07/05 14:29:47;;;;;;;;;;;30.40;26.60;;;;;;4915482;28;44729;-59
2022/07/05 14:32:13;;;;;;;;;;;30.50;26.80;;;;;;4931056;28;45207;-58
2022/07/05 14:34:38;;;;;;;;;;;30.50;26.60;;;;;;4918383;28;45111;-61
2022/07/05 14:37:04;;;;;;;;;;;30.50;26.50;;;;;;4929479;28;45181;-63
2022/07/05 14:39:29;;;;;;;;;;;30.50;26.50;;;;;;4934427;28;45330;-60
2022/07/05 14:41:55;;;;;;;;;;;30.60;26.30;;;;;;4932480;28;46269;-59
2022/07/05 14:44:20;;;;;;;;;;;30.50;26.40;;;;;;4924550;28;45467;-58
2022/07/05 14:46:46;;;;;;;;;;;30.50;26.40;;;;;;4927858;28;45088;-60
2022/07/05 14:49:11;;;;;;;;;;;30.40;26.30;;;;;;4923120;28;45246;-57
2022/07/05 14:51:37;;;;;;;;;;;30.40;26.20;;;;;;4931678;28;46110;-55
2022/07/05 14:54:02;;;;;;;;;;;30.40;26.30;;;;;;4926010;28;45466;-57
2022/07/05 14:56:28;;;;;;;;;;;30.50;26.40;;;;;;4926034;28;45146;-57
2022/07/05 14:58:53;;;;;;;;;;;30.50;26.30;;;;;;4935343;28;44653;-57
2022/07/05 15:01:19;;;;;;;;;;;30.60;26.50;;;;;;4929940;28;46179;-56
2022/07/05 15:03:45;;;;;;;;;;;30.60;26.30;;;;;;4915553;28;45093;-58
2022/07/05 15:06:10;;;;;;;;;;;30.60;26.10;;;;;;4916780;28;45672;-59
2022/07/05 15:08:36;;;;;;;;;;;30.60;26.30;;;;;;4934768;28;46345;-59
2022/07/05 15:11:01;;;;;;;;;;;30.60;26.10;;;;;;4918322;28;46891;-60
2022/07/05 15:13:27;;;;;;;;;;;30.60;26.20;;;;;;4926486;28;44690;-57
2022/07/05 15:15:53;;;;;;;;;;;30.60;26.20;;;;;;4932241;28;46819;-58
2022/07/05 15:18:18;;;;;;;;;;;30.60;26.40;;;;;;4929731;28;46154;-60
2022/07/05 15:20:44;;;;;;;;;;;30.60;26.20;;;;;;4923803;28;46015;-60
2022/07/05 15:23:10;;;;;;;;;;;30.60;26.40;;;;;;4931997;28;45362;-58
2022/07/05 15:25:36;;;;;;;;;;;30.60;26.20;;;;;;4912347;28;44954;-59
2022/07/05 15:28:02;;;;;;;;;;;30.60;26.20;;;;;;4910951;28;45254;-60
2022/07/05 15:30:27;;;;;;;;;;;30.60;26.10;;;;;;4929372;28;45940;-60
2022/07/05 15:32:53;;;;;;;;;;;30.70;25.90;;;;;;4928225;28;45253;-56
2022/07/05 15:35:18;;;;;;;;;;;30.70;25.90;;;;;;4934555;28;45309;-59
2022/07/05 15:37:44;;;;;;;;;;;30.70;25.80;;;;;;4940217;28;45320;-60
2022/07/05 15:40:10;;;;;;;;;;;30.70;25.80;;;;;;4927538;28;45960;-58
2022/07/05 15:42:35;;;;;;;;;;;30.70;25.60;;;;;;4929281;28;45160;-59
2022/07/05 15:45:01;;;;;;;;;;;30.70;25.50;;;;;;4910709;28;45296;-58
2022/07/05 15:47:27;;;;;;;;;;;30.70;25.60;;;;;;4930632;28;45226;-57
2022/07/05 15:49:53;;;;;;;;;;;30.70;25.60;;;;;;4917908;28;46236;-55
2022/07/05 15:52:18;;;;;;;;;;;30.70;25.60;;;;;;4925469;28;45206;-59
2022/07/05 15:54:44;;;;;;;;;;;30.70;25.50;;;;;;4928968;28;45246;-57
2022/07/05 15:57:09;;;;;;;;;;;30.70;25.80;;;;;;4932843;28;45511;-58
2022/07/05 15:59:35;;;;;;;;;;;30.70;25.60;;;;;;4926940;28;45934;-58
2022/07/05 16:02:00;;;;;;;;;;;30.60;25.80;;;;;;4927869;28;44626;-58
2022/07/05 16:04:28;;;;;;;;;;;30.60;25.70;;;;;;4927973;28;46149;-55
2022/07/05 16:06:56;;;;;;;;;;;30.50;25.80;;;;;;4927736;28;45209;-58
2022/07/05 16:09:22;;;;;;;;;;;30.60;25.80;;;;;;4924251;28;45983;-59